Time;durP1;ratioP1;P1;durP2;ratioP2;P2;SDS_P1;SDS_P2;PMS_P1;PMS_P2;Temp;Humidity;BMP_temperature;BMP_pressure;BME280_temperature;BME280_humidity;BME280_pressure;Samples;Min_cycle;Max_cycle;Signal;HPM_P1;HPM_P2
2023/08/31 00:02:13;;;;;;;5.82;1.80;;;12.10;99.90;;;;;;5035191;28;21405;-88
2023/08/31 00:04:39;;;;;;;4.90;1.65;;;12.20;99.90;;;;;;5049553;28;20052;-88
2023/08/31 00:07:05;;;;;;;3.72;1.60;;;12.10;99.90;;;;;;5035171;28;20044;-88
2023/08/31 00:09:31;;;;;;;5.13;1.90;;;12.10;99.90;;;;;;5028268;28;20036;-88
2023/08/31 00:11:56;;;;;;;6.25;1.73;;;12.10;99.90;;;;;;5034719;28;20043;-88
2023/08/31 00:14:23;;;;;;;8.52;2.35;;;12.10;99.90;;;;;;5054325;28;20312;-88
2023/08/31 00:16:49;;;;;;;6.47;1.80;;;12.10;99.90;;;;;;5021290;28;20075;-88
2023/08/31 00:19:15;;;;;;;6.32;2.22;;;12.00;99.90;;;;;;5038036;28;20068;-88
2023/08/31 00:21:41;;;;;;;7.45;2.00;;;12.00;99.90;;;;;;5034618;28;20072;-88
2023/08/31 00:24:07;;;;;;;6.43;2.10;;;12.10;99.90;;;;;;5037944;28;20046;-88
2023/08/31 00:26:34;;;;;;;7.32;2.10;;;12.10;99.90;;;;;;5047707;28;20032;-88
2023/08/31 00:29:00;;;;;;;6.25;2.00;;;12.10;99.90;;;;;;5052078;28;20194;-89
2023/08/31 00:31:27;;;;;;;6.68;2.00;;;12.10;99.90;;;;;;5064207;28;20283;-89
2023/08/31 00:33:53;;;;;;;7.38;2.20;;;12.10;99.90;;;;;;5054112;28;20046;-88
2023/08/31 00:36:19;;;;;;;6.10;2.20;;;12.10;99.90;;;;;;5030329;28;20040;-88
2023/08/31 00:38:44;;;;;;;6.45;2.08;;;12.10;99.90;;;;;;5030941;28;20036;-89
2023/08/31 00:41:11;;;;;;;8.15;2.30;;;12.10;99.90;;;;;;5029283;28;20044;-89
2023/08/31 00:43:37;;;;;;;7.22;2.35;;;12.10;99.90;;;;;;5054046;28;20050;-89
2023/08/31 00:46:04;;;;;;;6.85;2.10;;;12.10;99.90;;;;;;5051427;28;20048;-89
2023/08/31 00:48:29;;;;;;;7.32;2.40;;;12.10;99.90;;;;;;5050862;28;20036;-89
2023/08/31 00:50:55;;;;;;;7.07;2.47;;;12.10;99.90;;;;;;5033473;28;20512;-89
2023/08/31 00:53:21;;;;;;;6.50;2.33;;;12.10;99.90;;;;;;5043843;28;20508;-89
2023/08/31 00:55:47;;;;;;;6.10;2.10;;;12.00;99.90;;;;;;5040984;28;20041;-88
2023/08/31 00:58:13;;;;;;;6.03;2.00;;;12.10;99.90;;;;;;5033924;28;20367;-89
2023/08/31 01:01:09;;;;;;;7.30;2.22;;;12.00;99.90;;;;;;5026333;28;20041;-88
2023/08/31 01:04:12;;;;;;;5.03;2.00;;;12.00;99.90;;;;;;5017236;28;20044;-88
2023/08/31 01:07:08;;;;;;;5.75;2.17;;;12.00;99.90;;;;;;5026747;28;20498;-89
2023/08/31 01:09:57;;;;;;;7.47;2.33;;;12.00;99.90;;;;;;5017791;28;20036;-89
2023/08/31 01:12:34;;;;;;;5.47;2.10;;;12.00;99.90;;;;;;5026452;28;20073;-88
2023/08/31 01:15:04;;;;;;;6.72;2.00;;;12.00;99.90;;;;;;5046509;28;20406;-89
2023/08/31 01:17:31;;;;;;;6.22;2.10;;;12.00;99.90;;;;;;5022578;28;20099;-88
2023/08/31 01:20:00;;;;;;;6.25;1.98;;;12.00;99.90;;;;;;5020437;28;20033;-88
2023/08/31 01:22:42;;;;;;;6.13;1.85;;;11.90;99.90;;;;;;5046382;28;20052;-88
2023/08/31 01:25:09;;;;;;;5.90;1.70;;;11.90;99.90;;;;;;5051298;28;20347;-88
2023/08/31 01:27:38;;;;;;;7.00;2.45;;;11.90;99.90;;;;;;5012490;28;20037;-87
2023/08/31 01:30:05;;;;;;;6.80;1.88;;;11.90;99.90;;;;;;5036387;28;20502;-88
2023/08/31 01:32:34;;;;;;;6.53;1.90;;;11.90;99.90;;;;;;5006521;28;20041;-88
2023/08/31 01:35:05;;;;;;;6.20;1.75;;;11.80;99.90;;;;;;5023758;28;20045;-87
2023/08/31 01:37:43;;;;;;;5.35;1.75;;;11.80;99.90;;;;;;5025953;28;20041;-88
2023/08/31 01:40:33;;;;;;;6.25;1.90;;;11.80;99.90;;;;;;5024265;28;20037;-88
2023/08/31 01:43:04;;;;;;;4.95;1.80;;;11.80;99.90;;;;;;5032424;28;20155;-88
2023/08/31 01:45:33;;;;;;;6.57;1.80;;;11.80;99.90;;;;;;5025755;28;20033;-88
2023/08/31 01:47:59;;;;;;;4.72;1.80;;;11.80;99.90;;;;;;5032684;28;20040;-88
2023/08/31 01:50:25;;;;;;;6.18;1.90;;;11.80;99.90;;;;;;5022476;28;20510;-88
2023/08/31 01:52:53;;;;;;;6.68;2.08;;;11.80;99.90;;;;;;5018623;28;20060;-88
2023/08/31 01:55:19;;;;;;;5.50;1.77;;;11.80;99.90;;;;;;5025119;28;20048;-88
2023/08/31 01:57:44;;;;;;;5.53;1.77;;;11.70;99.90;;;;;;5020415;28;20045;-88
2023/08/31 02:00:11;;;;;;;6.30;1.90;;;11.70;99.90;;;;;;5028065;28;20067;-88
2023/08/31 02:02:37;;;;;;;5.30;1.77;;;11.70;99.90;;;;;;5012414;28;20116;-88
2023/08/31 02:05:04;;;;;;;4.63;1.80;;;11.70;99.90;;;;;;5016234;28;20660;-88
2023/08/31 02:07:30;;;;;;;6.07;1.80;;;11.70;99.90;;;;;;5050169;28;20176;-88
2023/08/31 02:09:56;;;;;;;6.82;1.88;;;11.70;99.90;;;;;;5033132;28;20167;-87
2023/08/31 02:12:22;;;;;;;4.57;1.73;;;11.80;99.90;;;;;;5045870;28;20049;-88
2023/08/31 02:14:48;;;;;;;3.85;1.58;;;11.70;99.90;;;;;;5033467;28;20040;-88
2023/08/31 02:17:13;;;;;;;3.92;1.50;;;11.70;99.90;;;;;;5021368;28;20409;-87
2023/08/31 02:19:39;;;;;;;3.78;1.50;;;11.70;99.90;;;;;;5033726;28;20064;-88
2023/08/31 02:22:05;;;;;;;5.20;1.50;;;11.70;99.90;;;;;;5060919;28;20056;-87
2023/08/31 02:24:30;;;;;;;6.70;1.70;;;11.70;99.90;;;;;;5054957;28;20141;-88
2023/08/31 02:26:56;;;;;;;3.97;1.30;;;11.70;99.90;;;;;;5028670;28;20549;-89
2023/08/31 02:29:22;;;;;;;6.38;1.90;;;11.70;99.90;;;;;;5051109;28;20451;-88
2023/08/31 02:31:48;;;;;;;3.88;1.42;;;11.60;99.90;;;;;;5045007;28;20047;-88
2023/08/31 02:34:14;;;;;;;3.22;1.48;;;11.60;99.90;;;;;;5062711;28;20116;-88
2023/08/31 02:36:40;;;;;;;4.38;1.40;;;11.60;99.90;;;;;;5048132;28;20033;-89
2023/08/31 02:39:06;;;;;;;4.38;1.50;;;11.60;99.90;;;;;;5032961;28;20040;-88
2023/08/31 02:41:32;;;;;;;6.05;1.60;;;11.70;99.90;;;;;;5032251;28;20508;-85
2023/08/31 02:43:58;;;;;;;6.63;1.63;;;11.60;99.90;;;;;;5044378;28;20044;-87
2023/08/31 02:46:24;;;;;;;5.75;1.70;;;11.70;99.90;;;;;;5047906;28;20095;-88
2023/08/31 02:48:50;;;;;;;2.45;1.30;;;11.60;99.90;;;;;;5026918;28;20037;-88
2023/08/31 02:51:16;;;;;;;5.45;1.30;;;11.60;99.90;;;;;;5063769;28;20131;-87
2023/08/31 02:53:42;;;;;;;3.80;1.10;;;11.60;99.90;;;;;;5040772;28;20112;-88
2023/08/31 02:56:07;;;;;;;3.30;1.27;;;11.60;99.90;;;;;;5039592;28;20040;-87
2023/08/31 02:58:33;;;;;;;4.20;1.30;;;11.60;99.90;;;;;;5026523;28;20043;-88
2023/08/31 03:01:13;;;;;;;6.80;1.60;;;11.60;99.90;;;;;;5049369;28;20097;-88
2023/08/31 03:03:40;;;;;;;5.32;1.50;;;11.60;99.90;;;;;;5039255;28;20129;-87
2023/08/31 03:06:10;;;;;;;3.75;1.40;;;11.60;99.90;;;;;;5042608;28;20064;-88
2023/08/31 03:08:37;;;;;;;5.10;1.60;;;11.60;99.90;;;;;;5066051;28;20036;-88
2023/08/31 03:11:05;;;;;;;3.17;1.50;;;11.60;99.90;;;;;;5044353;28;20106;-88
2023/08/31 03:13:34;;;;;;;3.83;1.40;;;11.60;99.90;;;;;;5047356;28;20048;-87
2023/08/31 03:16:00;;;;;;;6.18;1.70;;;11.60;99.90;;;;;;5047023;28;20119;-87
2023/08/31 03:18:26;;;;;;;5.30;1.42;;;11.60;99.90;;;;;;5049136;28;20401;-88
2023/08/31 03:20:52;;;;;;;3.47;1.40;;;11.60;99.90;;;;;;5040206;28;20033;-87
2023/08/31 03:23:18;;;;;;;6.32;1.35;;;11.50;99.90;;;;;;5048256;28;20037;-88
2023/08/31 03:25:43;;;;;;;4.85;1.55;;;11.50;99.90;;;;;;5030175;28;20040;-88
2023/08/31 03:28:09;;;;;;;3.80;1.65;;;11.50;99.90;;;;;;5029360;28;20124;-88
2023/08/31 03:30:35;;;;;;;5.95;1.65;;;11.50;99.90;;;;;;5031964;28;20044;-88
2023/08/31 03:33:02;;;;;;;3.42;1.23;;;11.50;99.90;;;;;;5040929;28;20037;-88
2023/08/31 03:35:28;;;;;;;5.13;1.50;;;11.50;99.90;;;;;;5037523;28;20061;-88
2023/08/31 03:37:55;;;;;;;4.15;1.42;;;11.50;99.90;;;;;;5062043;28;20029;-89
2023/08/31 03:40:22;;;;;;;5.07;1.70;;;11.50;99.90;;;;;;5042839;28;20171;-88
2023/08/31 03:42:49;;;;;;;4.20;1.40;;;11.50;99.90;;;;;;5067636;28;20036;-88
2023/08/31 03:45:15;;;;;;;4.55;1.65;;;11.40;99.90;;;;;;5066964;28;20044;-88
2023/08/31 03:47:40;;;;;;;4.85;1.50;;;11.50;99.90;;;;;;5031371;28;20055;-88
2023/08/31 03:50:07;;;;;;;4.88;1.75;;;11.40;99.90;;;;;;5015067;28;20037;-88
2023/08/31 03:52:32;;;;;;;4.70;1.60;;;11.50;99.90;;;;;;5044314;28;20043;-89
2023/08/31 03:54:58;;;;;;;5.88;1.85;;;11.50;99.90;;;;;;5019811;28;20037;-88
2023/08/31 03:57:24;;;;;;;3.90;1.55;;;11.50;99.90;;;;;;5030518;28;20036;-88
2023/08/31 03:59:49;;;;;;;4.72;1.52;;;11.50;99.90;;;;;;5024585;28;20033;-88
2023/08/31 04:02:15;;;;;;;4.43;1.83;;;11.60;99.90;;;;;;5049412;28;20170;-88
2023/08/31 04:04:41;;;;;;;6.72;2.35;;;11.50;99.90;;;;;;5040794;28;20053;-88
2023/08/31 04:07:06;;;;;;;9.48;2.20;;;11.50;99.90;;;;;;5025648;28;20155;-88
2023/08/31 04:09:32;;;;;;;6.68;2.20;;;11.60;99.90;;;;;;5021788;28;20116;-88
2023/08/31 04:11:58;;;;;;;5.57;1.70;;;11.60;99.90;;;;;;5022253;28;20128;-88
2023/08/31 04:14:27;;;;;;;7.55;1.70;;;11.50;99.90;;;;;;5030922;28;20056;-88
2023/08/31 04:16:53;;;;;;;4.72;1.73;;;11.50;99.90;;;;;;5058437;28;20029;-89
2023/08/31 04:19:19;;;;;;;6.63;1.60;;;11.50;99.90;;;;;;5028165;28;20179;-88
2023/08/31 04:21:45;;;;;;;5.35;1.80;;;11.50;99.90;;;;;;5038218;28;20041;-88
2023/08/31 04:24:10;;;;;;;5.40;1.80;;;11.50;99.90;;;;;;5051782;28;20091;-88
2023/08/31 04:26:36;;;;;;;4.70;1.60;;;11.50;99.90;;;;;;5045173;28;20076;-88
2023/08/31 04:29:05;;;;;;;6.18;1.95;;;11.50;99.90;;;;;;5033856;28;20052;-87
2023/08/31 04:31:31;;;;;;;6.03;1.70;;;11.50;99.90;;;;;;5020415;28;20132;-87
2023/08/31 04:33:58;;;;;;;5.22;1.70;;;11.50;99.90;;;;;;5065365;28;20075;-87
2023/08/31 04:36:25;;;;;;;6.30;2.10;;;11.50;99.90;;;;;;5030745;28;20033;-88
2023/08/31 04:38:51;;;;;;;5.80;1.92;;;11.50;99.90;;;;;;5031414;28;20033;-87
2023/08/31 04:41:18;;;;;;;6.13;1.80;;;11.50;99.90;;;;;;5031793;28;20059;-87
2023/08/31 04:43:43;;;;;;;6.30;1.92;;;11.50;99.90;;;;;;5045242;28;20040;-88
2023/08/31 04:46:10;;;;;;;5.47;1.90;;;11.50;99.90;;;;;;5039591;28;20051;-87
2023/08/31 04:48:36;;;;;;;5.88;1.85;;;11.50;99.90;;;;;;5028383;28;20041;-87
2023/08/31 04:51:03;;;;;;;6.75;2.00;;;11.50;99.90;;;;;;5038920;28;20127;-88
2023/08/31 04:53:30;;;;;;;5.45;1.98;;;11.50;99.90;;;;;;5027404;28;20118;-88
2023/08/31 04:55:56;;;;;;;5.68;2.10;;;11.50;99.90;;;;;;5024825;28;20037;-88
2023/08/31 04:58:21;;;;;;;6.00;2.15;;;11.50;99.90;;;;;;5019140;28;20099;-88
2023/08/31 05:00:47;;;;;;;8.35;2.28;;;11.60;99.90;;;;;;5029319;28;20457;-87
2023/08/31 05:03:13;;;;;;;6.93;2.45;;;11.60;99.90;;;;;;5027889;28;20075;-88
2023/08/31 05:05:41;;;;;;;6.80;2.33;;;11.60;99.90;;;;;;5045439;28;20143;-87
2023/08/31 05:08:08;;;;;;;6.82;2.30;;;11.50;99.90;;;;;;5031469;28;20116;-88
2023/08/31 05:10:34;;;;;;;7.47;2.28;;;11.60;99.90;;;;;;5044973;28;20123;-87
2023/08/31 05:12:59;;;;;;;7.53;2.40;;;11.60;99.90;;;;;;5039856;28;20108;-87
2023/08/31 05:15:27;;;;;;;6.70;2.40;;;11.60;99.90;;;;;;5004563;28;20033;-88
2023/08/31 05:17:53;;;;;;;9.13;2.60;;;11.60;99.90;;;;;;5015877;28;20370;-88
2023/08/31 05:20:21;;;;;;;6.75;2.40;;;11.60;99.90;;;;;;5026170;28;20033;-88
2023/08/31 05:22:47;;;;;;;7.50;2.58;;;11.70;99.90;;;;;;5058977;28;20048;-88
2023/08/31 05:25:12;;;;;;;9.13;2.70;;;11.70;99.90;;;;;;5027459;28;20041;-87
2023/08/31 05:27:38;;;;;;;8.07;2.95;;;11.70;99.90;;;;;;5053121;28;20099;-87
2023/08/31 05:30:05;;;;;;;8.68;2.58;;;11.70;99.90;;;;;;5046752;28;20048;-87
2023/08/31 05:32:30;;;;;;;7.50;2.60;;;11.70;99.90;;;;;;5041309;28;20117;-87
2023/08/31 05:34:58;;;;;;;7.82;2.65;;;11.70;99.90;;;;;;5043048;28;20112;-87
2023/08/31 05:37:23;;;;;;;7.88;2.65;;;11.70;99.90;;;;;;5042564;28;20569;-87
2023/08/31 05:39:49;;;;;;;8.15;2.28;;;11.80;99.90;;;;;;5044356;28;20123;-87
2023/08/31 05:42:15;;;;;;;8.35;2.50;;;11.80;99.90;;;;;;5021513;28;20098;-87
2023/08/31 05:44:41;;;;;;;6.57;2.25;;;11.80;99.90;;;;;;5045345;28;20037;-88
2023/08/31 05:47:06;;;;;;;11.02;2.40;;;11.90;99.90;;;;;;5020707;28;20143;-87
2023/08/31 05:49:33;;;;;;;6.03;2.33;;;11.90;99.90;;;;;;5030348;28;20036;-87
2023/08/31 05:51:59;;;;;;;7.60;2.53;;;12.00;99.90;;;;;;5024302;28;20109;-87
2023/08/31 05:54:24;;;;;;;6.65;2.30;;;12.00;99.90;;;;;;5019648;28;20033;-87
2023/08/31 05:56:50;;;;;;;7.25;2.17;;;12.10;99.90;;;;;;5026116;28;20063;-88
2023/08/31 05:59:16;;;;;;;10.27;2.28;;;12.10;99.90;;;;;;5031777;28;20033;-87
2023/08/31 06:01:43;;;;;;;5.60;2.15;;;12.20;99.90;;;;;;5042602;28;20037;-87
2023/08/31 06:04:09;;;;;;;6.10;2.20;;;12.20;99.90;;;;;;5050070;28;20048;-87
2023/08/31 06:06:35;;;;;;;7.15;2.22;;;12.20;99.90;;;;;;5042360;28;20362;-86
2023/08/31 06:09:01;;;;;;;6.13;2.00;;;12.40;99.90;;;;;;5015867;28;20363;-86
2023/08/31 06:11:27;;;;;;;6.80;1.98;;;12.40;99.90;;;;;;5035206;28;20056;-87
2023/08/31 06:13:52;;;;;;;7.28;2.15;;;12.50;99.90;;;;;;5035977;28;20036;-86
2023/08/31 06:16:18;;;;;;;6.82;2.08;;;12.60;99.90;;;;;;5028913;28;20041;-86
2023/08/31 06:18:44;;;;;;;6.38;2.20;;;12.60;99.90;;;;;;5034806;28;20064;-88
2023/08/31 06:21:10;;;;;;;8.40;2.17;;;12.70;99.90;;;;;;5036638;28;20036;-88
2023/08/31 06:23:35;;;;;;;7.22;2.33;;;12.80;99.90;;;;;;5065250;28;20062;-87
2023/08/31 06:26:01;;;;;;;5.45;1.70;;;13.00;99.90;;;;;;5057197;28;20097;-87
2023/08/31 06:28:27;;;;;;;5.88;2.00;;;13.00;99.90;;;;;;5049348;28;20527;-88
2023/08/31 06:30:52;;;;;;;5.30;1.80;;;13.10;99.90;;;;;;5032586;28;20086;-87
2023/08/31 06:33:19;;;;;;;5.60;1.80;;;13.30;99.90;;;;;;5032642;28;20125;-87
2023/08/31 06:35:51;;;;;;;7.05;2.15;;;13.30;99.90;;;;;;5040062;28;20029;-86
2023/08/31 06:38:17;;;;;;;6.38;2.00;;;13.50;99.90;;;;;;5032993;28;20094;-87
2023/08/31 06:40:43;;;;;;;5.25;1.85;;;13.50;99.90;;;;;;5043422;28;20044;-88
2023/08/31 06:43:09;;;;;;;6.55;2.00;;;13.60;99.90;;;;;;5029045;28;20055;-87
2023/08/31 06:45:35;;;;;;;4.95;1.75;;;13.70;99.90;;;;;;5029566;28;20044;-87
2023/08/31 06:48:02;;;;;;;6.65;1.90;;;13.80;99.90;;;;;;5050072;28;20048;-87
2023/08/31 06:50:27;;;;;;;5.13;1.80;;;13.90;99.90;;;;;;5054577;28;20040;-88
2023/08/31 06:52:53;;;;;;;7.57;2.17;;;14.10;99.90;;;;;;5034644;28;20048;-87
2023/08/31 06:55:19;;;;;;;5.53;1.70;;;14.20;99.90;;;;;;5035619;28;20539;-90
2023/08/31 06:57:45;;;;;;;6.38;2.10;;;14.20;99.90;;;;;;5034822;28;20051;-88
2023/08/31 07:00:12;;;;;;;6.00;1.90;;;14.30;99.90;;;;;;5043539;28;20036;-88
2023/08/31 07:02:40;;;;;;;6.22;1.88;;;14.40;99.90;;;;;;5033280;28;20050;-87
2023/08/31 07:05:06;;;;;;;6.63;2.00;;;14.50;99.90;;;;;;5063283;28;20179;-87
2023/08/31 07:07:32;;;;;;;6.35;1.75;;;14.60;99.90;;;;;;5064784;28;20385;-88
2023/08/31 07:09:57;;;;;;;5.57;1.65;;;14.70;99.90;;;;;;5042898;28;20177;-87
2023/08/31 07:12:23;;;;;;;7.97;1.95;;;14.80;99.90;;;;;;5042136;28;20044;-88
2023/08/31 07:14:49;;;;;;;5.90;1.77;;;14.90;99.90;;;;;;5043275;28;20275;-88
2023/08/31 07:17:19;;;;;;;6.10;1.60;;;15.00;99.90;;;;;;5052601;28;20040;-88
2023/08/31 07:19:44;;;;;;;5.70;1.73;;;15.20;99.90;;;;;;5039971;28;20496;-88
2023/08/31 07:22:10;;;;;;;6.18;1.75;;;15.20;99.90;;;;;;5051574;28;20040;-88
2023/08/31 07:24:36;;;;;;;3.38;1.40;;;15.30;99.90;;;;;;5035316;28;20044;-89
2023/08/31 07:27:03;;;;;;;6.57;1.60;;;15.40;99.90;;;;;;5034326;28;20044;-88
2023/08/31 07:29:29;;;;;;;6.38;1.50;;;15.50;99.90;;;;;;5028032;28;20036;-88
2023/08/31 07:31:54;;;;;;;5.85;1.40;;;15.50;99.90;;;;;;5047337;28;20035;-88
2023/08/31 07:34:20;;;;;;;5.95;1.50;;;15.60;99.90;;;;;;5034859;28;20036;-87
2023/08/31 07:36:46;;;;;;;9.45;1.92;;;15.60;99.90;;;;;;5043785;28;20043;-87
2023/08/31 07:39:12;;;;;;;2.60;1.13;;;15.70;99.90;;;;;;5028477;28;20163;-88
2023/08/31 07:41:38;;;;;;;6.13;1.40;;;15.80;99.90;;;;;;5031256;28;20286;-88
2023/08/31 07:44:04;;;;;;;4.57;1.35;;;15.90;99.90;;;;;;5045759;28;20115;-88
2023/08/31 07:46:30;;;;;;;5.72;1.40;;;16.00;99.90;;;;;;5030244;28;20036;-88
2023/08/31 07:48:56;;;;;;;5.85;1.42;;;16.10;99.90;;;;;;5031661;28;20043;-87
2023/08/31 07:51:23;;;;;;;5.10;1.15;;;16.20;99.90;;;;;;5041915;28;20899;-88
2023/08/31 07:53:51;;;;;;;5.47;1.30;;;16.20;99.90;;;;;;5030319;28;20059;-88
2023/08/31 07:56:17;;;;;;;3.03;1.15;;;16.30;99.90;;;;;;5045668;28;20033;-88
2023/08/31 07:58:43;;;;;;;4.38;1.25;;;16.40;99.90;;;;;;5035444;28;20132;-88
2023/08/31 08:01:09;;;;;;;5.07;1.30;;;16.50;99.90;;;;;;5015735;28;20044;-89
2023/08/31 08:03:35;;;;;;;3.75;1.20;;;16.60;99.90;;;;;;5031855;28;20389;-89
2023/08/31 08:06:00;;;;;;;3.63;1.20;;;16.70;99.90;;;;;;5051058;28;20219;-87
2023/08/31 08:08:26;;;;;;;5.97;1.40;;;16.70;99.90;;;;;;5055324;28;20067;-89
2023/08/31 08:10:53;;;;;;;3.17;1.10;;;16.80;99.90;;;;;;5009982;28;20075;-88
2023/08/31 08:13:19;;;;;;;2.45;1.10;;;16.90;99.90;;;;;;5040869;28;20032;-89
2023/08/31 08:15:49;;;;;;;6.70;1.38;;;17.00;99.90;;;;;;5005010;28;20033;-87
2023/08/31 08:18:14;;;;;;;4.47;1.60;;;17.10;99.90;;;;;;5045496;28;20437;-89
2023/08/31 08:20:40;;;;;;;5.07;1.50;;;17.20;99.90;;;;;;5023495;28;20123;-88
2023/08/31 08:23:06;;;;;;;3.85;1.20;;;17.20;99.90;;;;;;5017984;28;20052;-89
2023/08/31 08:25:32;;;;;;;4.20;1.30;;;17.30;99.90;;;;;;5043892;28;20048;-87
2023/08/31 08:27:58;;;;;;;3.53;1.27;;;17.30;99.90;;;;;;5051160;28;20066;-88
2023/08/31 08:30:24;;;;;;;4.22;1.17;;;17.40;99.90;;;;;;5021827;28;20042;-88
2023/08/31 08:32:50;;;;;;;5.95;1.60;;;17.40;99.90;;;;;;5027576;28;20082;-88
2023/08/31 08:35:15;;;;;;;6.15;1.20;;;17.40;99.90;;;;;;5023948;28;20673;-88
2023/08/31 08:37:41;;;;;;;3.63;1.20;;;17.50;99.90;;;;;;5065131;28;20043;-88
2023/08/31 08:40:07;;;;;;;2.95;0.93;;;17.70;99.90;;;;;;5038027;28;20043;-89
2023/08/31 08:42:41;;;;;;;2.00;0.93;;;17.70;99.90;;;;;;5046527;28;20040;-88
2023/08/31 08:45:16;;;;;;;3.17;1.10;;;17.80;99.90;;;;;;5062054;28;20047;-88
2023/08/31 08:47:46;;;;;;;4.43;1.10;;;17.90;99.90;;;;;;5013485;28;20067;-89
2023/08/31 08:50:13;;;;;;;3.15;1.20;;;17.80;99.90;;;;;;5028818;28;20479;-89
2023/08/31 08:52:42;;;;;;;5.80;1.25;;;17.80;99.90;;;;;;5032715;28;20036;-88
2023/08/31 08:55:09;;;;;;;2.72;1.00;;;17.80;99.90;;;;;;5044622;28;20068;-88
2023/08/31 08:57:35;;;;;;;4.30;1.20;;;17.90;99.90;;;;;;5032402;28;20077;-89
2023/08/31 09:00:00;;;;;;;5.95;1.20;;;18.10;99.90;;;;;;5023017;28;20035;-89
2023/08/31 09:02:26;;;;;;;3.30;0.93;;;18.30;99.90;;;;;;5026510;28;20097;-89
2023/08/31 09:04:54;;;;;;;4.05;0.95;;;18.40;99.90;;;;;;5039775;28;20056;-88
2023/08/31 09:07:24;;;;;;;2.65;1.00;;;18.30;99.90;;;;;;5025345;28;20552;-88
2023/08/31 09:09:51;;;;;;;3.47;0.93;;;18.10;99.90;;;;;;5054643;28;20048;-90
2023/08/31 09:12:17;;;;;;;5.55;1.50;;;18.10;99.90;;;;;;5043584;28;20040;-90
2023/08/31 09:14:43;;;;;;;3.60;1.27;;;18.00;99.90;;;;;;5035123;28;20045;-88
2023/08/31 09:17:09;;;;;;;5.60;1.60;;;17.90;99.90;;;;;;5063290;28;20032;-89
2023/08/31 09:19:35;;;;;;;3.55;1.00;;;18.00;99.90;;;;;;5029150;28;20107;-90
2023/08/31 09:22:01;;;;;;;3.63;1.20;;;18.20;99.90;;;;;;5023853;28;20485;-88
2023/08/31 09:24:26;;;;;;;7.70;1.98;;;18.30;99.90;;;;;;5043536;28;20093;-88
2023/08/31 09:26:55;;;;;;;2.70;1.00;;;18.10;99.90;;;;;;5044247;28;20136;-89
2023/08/31 09:29:21;;;;;;;3.72;1.02;;;17.60;99.90;;;;;;5049415;28;20037;-87
2023/08/31 09:31:47;;;;;;;3.13;1.10;;;17.20;99.90;;;;;;5039144;28;20044;-87
2023/08/31 09:34:17;;;;;;;2.40;0.90;;;16.90;99.90;;;;;;5044625;28;20083;-87
2023/08/31 09:36:44;;;;;;;3.50;1.20;;;16.70;99.90;;;;;;5048123;28;20047;-87
2023/08/31 09:39:11;;;;;;;3.80;0.95;;;16.60;99.90;;;;;;5035365;28;20041;-88
2023/08/31 09:41:59;;;;;;;3.22;1.10;;;16.70;99.90;;;;;;5042902;28;20041;-88
2023/08/31 09:44:27;;;;;;;5.40;1.15;;;16.90;99.90;;;;;;5029889;28;20052;-87
2023/08/31 09:46:53;;;;;;;2.47;0.95;;;17.10;99.90;;;;;;5057269;28;20485;-91
2023/08/31 09:49:21;;;;;;;2.08;0.85;;;17.30;99.90;;;;;;5046487;28;20041;-89
2023/08/31 09:51:49;;;;;;;2.20;1.02;;;17.40;99.90;;;;;;5067493;28;20041;-88
2023/08/31 09:54:17;;;;;;;4.10;1.10;;;17.60;99.90;;;;;;5050840;28;20060;-87
2023/08/31 09:56:44;;;;;;;4.32;1.20;;;17.70;99.90;;;;;;5047119;28;20127;-88
2023/08/31 09:59:11;;;;;;;3.55;1.00;;;17.90;99.90;;;;;;5029871;28;20130;-89
2023/08/31 10:01:37;;;;;;;5.00;1.20;;;18.10;99.90;;;;;;5050260;28;20037;-89
2023/08/31 10:04:03;;;;;;;5.10;1.73;;;18.30;99.90;;;;;;5034907;28;20042;-90
2023/08/31 10:06:30;;;;;;;3.88;1.20;;;18.00;99.90;;;;;;5047154;28;20429;-90
2023/08/31 10:08:57;;;;;;;3.42;1.27;;;17.70;99.90;;;;;;5037181;28;20147;-88
2023/08/31 10:11:25;;;;;;;2.55;1.23;;;17.50;99.90;;;;;;5038387;28;20047;-89
2023/08/31 10:13:53;;;;;;;4.95;1.20;;;17.50;99.90;;;;;;5056157;28;20119;-88
2023/08/31 10:16:20;;;;;;;4.85;1.30;;;17.70;99.90;;;;;;5043583;28;20048;-90
2023/08/31 10:18:45;;;;;;;3.28;1.20;;;17.90;99.90;;;;;;5063737;28;20405;-90
2023/08/31 10:21:15;;;;;;;5.90;1.50;;;18.00;99.90;;;;;;5048811;28;20036;-90
2023/08/31 10:23:48;;;;;;;3.28;1.20;;;18.40;99.90;;;;;;5066429;28;20488;-91
2023/08/31 10:26:27;;;;;;;4.15;1.17;;;18.40;99.90;;;;;;5029022;28;20131;-90
2023/08/31 10:28:53;;;;;;;4.07;1.20;;;18.20;99.90;;;;;;5049688;28;20182;-89
2023/08/31 10:31:23;;;;;;;2.70;0.98;;;17.90;99.90;;;;;;5062251;28;20037;-90
2023/08/31 10:34:00;;;;;;;4.35;1.30;;;17.60;99.90;;;;;;5030886;28;20561;-91
2023/08/31 10:36:44;;;;;;;1.85;0.85;;;17.30;99.90;;;;;;5051075;28;20404;-89
2023/08/31 10:39:21;;;;;;;3.60;1.10;;;17.10;99.90;;;;;;5069612;28;20063;-89
2023/08/31 10:41:57;;;;;;;4.75;1.10;;;17.10;99.90;;;;;;5040013;28;20530;-92
2023/08/31 10:44:28;;;;;;;3.38;1.48;;;17.10;99.90;;;;;;5037589;28;20039;-90
2023/08/31 10:46:54;;;;;;;3.15;1.20;;;17.30;99.90;;;;;;5037268;28;20565;-90
2023/08/31 10:49:21;;;;;;;3.70;1.13;;;17.50;99.90;;;;;;5038530;28;20554;-90
2023/08/31 10:51:56;;;;;;;3.97;1.15;;;17.80;99.90;;;;;;5047816;28;20051;-90
2023/08/31 10:54:26;;;;;;;3.85;1.15;;;18.20;99.90;;;;;;5066724;28;21078;-89
2023/08/31 10:57:06;;;;;;;4.18;1.17;;;18.30;99.90;;;;;;5042489;28;20038;-88
2023/08/31 10:59:52;;;;;;;2.90;1.27;;;18.60;99.90;;;;;;5060754;28;20085;-89
2023/08/31 11:02:40;;;;;;;3.47;1.20;;;18.80;99.90;;;;;;5049866;28;20052;-90
2023/08/31 11:05:19;;;;;;;3.45;1.35;;;19.00;99.90;;;;;;5058945;28;20528;-90
2023/08/31 11:07:49;;;;;;;5.82;1.40;;;19.10;99.90;;;;;;5035368;28;20477;-89
2023/08/31 11:10:29;;;;;;;4.40;1.40;;;19.20;99.90;;;;;;5051460;28;20075;-89
2023/08/31 11:12:56;;;;;;;6.55;1.88;;;18.90;99.90;;;;;;5013236;28;20075;-90
2023/08/31 11:15:23;;;;;;;4.82;1.50;;;18.60;99.90;;;;;;5032969;28;20056;-89
2023/08/31 11:17:54;;;;;;;5.25;1.40;;;18.30;99.90;;;;;;5040762;28;20063;-90
2023/08/31 11:20:21;;;;;;;4.47;1.33;;;18.00;99.90;;;;;;5060565;28;20063;-90
2023/08/31 11:22:49;;;;;;;2.65;1.23;;;18.10;99.90;;;;;;5046473;28;20040;-89
2023/08/31 11:25:16;;;;;;;3.45;1.30;;;19.70;99.90;;;;;;5042208;28;20185;-91
2023/08/31 11:27:43;;;;;;;4.43;1.33;;;18.50;99.90;;;;;;5042797;28;20052;-91
2023/08/31 11:30:15;;;;;;;3.40;1.20;;;18.70;99.90;;;;;;5034535;28;20116;-89
2023/08/31 11:32:49;;;;;;;4.68;1.30;;;19.10;99.90;;;;;;5042164;28;20043;-88
2023/08/31 11:35:16;;;;;;;4.25;1.30;;;19.10;99.90;;;;;;5054810;28;20040;-89
2023/08/31 11:37:44;;;;;;;4.55;1.40;;;19.20;99.90;;;;;;5035622;28;20055;-92
2023/08/31 11:40:10;;;;;;;4.25;1.30;;;19.40;99.90;;;;;;5044139;28;20052;-88
2023/08/31 11:42:36;;;;;;;4.18;1.38;;;19.50;99.90;;;;;;5017825;28;20044;-89
2023/08/31 11:45:05;;;;;;;3.15;1.08;;;19.60;99.90;;;;;;5047911;28;20397;-89
2023/08/31 11:47:32;;;;;;;5.15;1.35;;;19.60;99.90;;;;;;5056057;28;21897;-89
2023/08/31 11:49:59;;;;;;;4.50;1.30;;;19.40;99.90;;;;;;5053109;28;20048;-89
2023/08/31 11:52:25;;;;;;;3.95;1.30;;;19.10;99.90;;;;;;5053325;28;20143;-90
2023/08/31 11:54:53;;;;;;;3.75;1.30;;;18.90;99.90;;;;;;5020115;28;20557;-90
2023/08/31 11:57:24;;;;;;;2.97;1.05;;;18.70;99.90;;;;;;5052234;28;20059;-90
2023/08/31 11:59:52;;;;;;;3.33;1.08;;;18.60;99.90;;;;;;5036145;28;20120;-90
2023/08/31 12:02:19;;;;;;;3.15;1.15;;;18.20;99.90;;;;;;5035234;28;20051;-89
2023/08/31 12:04:46;;;;;;;4.05;1.05;;;17.80;99.90;;;;;;5048227;28;20409;-89
2023/08/31 12:07:18;;;;;;;3.75;1.25;;;17.50;99.90;;;;;;5050859;28;20067;-91
2023/08/31 12:09:45;;;;;;;3.20;0.95;;;17.00;99.90;;;;;;5036021;28;20044;-90
2023/08/31 12:12:13;;;;;;;5.03;1.58;;;16.40;99.90;;;;;;5052033;28;20046;-91
2023/08/31 12:14:39;;;;;;;4.63;1.40;;;16.10;99.90;;;;;;5052670;28;20115;-92
2023/08/31 12:17:07;;;;;;;2.75;0.98;;;15.90;99.90;;;;;;5037762;28;20053;-89
2023/08/31 12:19:36;;;;;;;3.13;1.05;;;15.80;99.90;;;;;;5052399;28;20121;-90
2023/08/31 12:22:02;;;;;;;4.75;1.10;;;15.80;99.90;;;;;;5068213;28;20048;-90
2023/08/31 12:24:28;;;;;;;2.95;1.10;;;16.10;99.90;;;;;;5055722;28;20142;-91
2023/08/31 12:26:54;;;;;;;4.28;1.30;;;16.50;99.90;;;;;;5037258;28;20044;-90
2023/08/31 12:29:20;;;;;;;3.92;1.27;;;16.80;99.90;;;;;;5052071;28;20071;-90
2023/08/31 12:31:46;;;;;;;4.38;1.58;;;17.00;99.90;;;;;;5047192;28;20072;-89
2023/08/31 12:34:12;;;;;;;4.10;1.40;;;17.00;99.90;;;;;;5035604;28;20075;-89
2023/08/31 12:36:40;;;;;;;3.83;1.23;;;17.00;99.90;;;;;;5054500;28;20101;-89
2023/08/31 12:39:09;;;;;;;3.83;1.38;;;17.10;99.90;;;;;;5035231;28;20086;-90
2023/08/31 12:41:34;;;;;;;3.75;1.23;;;17.00;99.90;;;;;;5048746;28;20067;-90
2023/08/31 12:44:00;;;;;;;3.63;1.40;;;16.90;99.90;;;;;;5035580;28;20067;-90
2023/08/31 12:46:26;;;;;;;4.40;1.30;;;16.10;99.90;;;;;;5028108;28;20074;-90
2023/08/31 12:48:52;;;;;;;4.53;1.40;;;16.90;99.90;;;;;;5053988;28;20395;-90
2023/08/31 12:51:18;;;;;;;4.72;1.30;;;16.80;99.90;;;;;;5051679;28;20052;-90